Time;durP1;ratioP1;P1;durP2;ratioP2;P2;SDS_P1;SDS_P2;PMS_P1;PMS_P2;Temp;Humidity;BMP_temperature;BMP_pressure;BME280_temperature;BME280_humidity;BME280_pressure;Samples;Min_cycle;Max_cycle;Signal;HPM_P1;HPM_P2
2022/10/10 00:01:34;;;;;;;28.88;20.83;;;;;;;19.82;73.71;101689.16;5004297;28;20060;-81
2022/10/10 00:04:02;;;;;;;29.00;20.38;;;;;;;18.49;73.90;101470.47;5003989;28;20522;-82
2022/10/10 00:06:29;;;;;;;27.17;19.63;;;;;;;18.54;73.45;101462.78;5008292;28;20082;-82
2022/10/10 00:08:59;;;;;;;30.23;20.23;;;;;;;19.72;73.59;101661.56;5010999;28;20038;-80
2022/10/10 00:11:26;;;;;;;27.52;19.85;;;;;;;19.61;73.21;101638.50;5005711;28;20060;-81
2022/10/10 00:13:53;;;;;;;29.00;19.17;;;;;;;19.85;73.03;101672.66;5004502;28;20135;-80
2022/10/10 00:16:20;;;;;;;30.83;20.48;;;;;;;19.52;72.93;101623.34;5006383;28;20145;-82
2022/10/10 00:18:47;;;;;;;31.60;20.23;;;;;;;19.85;72.79;101658.34;5027104;28;20061;-80
2022/10/10 00:21:13;;;;;;;30.65;19.50;;;;;;;19.90;72.63;101679.38;5044074;28;20132;-80
2022/10/10 00:23:40;;;;;;;30.23;18.77;;;;;;;19.90;72.33;101674.00;5027756;28;20458;-80
2022/10/10 00:26:09;;;;;;;26.73;18.00;;;;;;;19.93;71.73;101665.56;5027535;28;20053;-80
2022/10/10 00:28:44;;;;;;;36.42;19.52;;;;;;;19.76;71.90;101652.13;5027812;28;20054;-80
2022/10/10 00:31:11;;;;;;;34.25;18.88;;;;;;;19.60;72.24;101636.81;5027419;28;20077;-81
2022/10/10 00:33:38;;;;;;;26.50;18.00;;;;;;;19.80;72.70;101664.22;5027562;28;20132;-80
2022/10/10 00:36:05;;;;;;;30.42;18.63;;;;;;;19.21;72.32;101567.50;5027808;28;20144;-81
2022/10/10 00:38:33;;;;;;;24.38;17.98;;;;;;;19.46;72.17;101601.66;5012272;28;20550;-82
2022/10/10 00:41:00;;;;;;;24.35;17.55;;;;;;;19.55;72.01;101632.94;5001211;28;20418;-81
2022/10/10 00:43:28;;;;;;;25.83;17.63;;;;;;;19.69;71.85;101655.69;5024204;28;20046;-81
2022/10/10 00:45:55;;;;;;;28.67;17.52;;;;;;;19.23;71.84;101582.66;5007690;28;20061;-82
2022/10/10 00:48:30;;;;;;;29.40;17.98;;;;;;;19.54;71.65;101642.88;5024412;28;20046;-81
2022/10/10 00:51:05;;;;;;;29.00;17.40;;;;;;;19.55;71.98;101654.50;5008951;28;20557;-80
2022/10/10 00:53:41;;;;;;;29.30;16.98;;;;;;;19.62;72.01;101672.50;5007940;28;20049;-81
2022/10/10 00:56:11;;;;;;;26.02;16.67;;;;;;;19.62;71.67;101655.50;5007569;28;20084;-81
2022/10/10 00:58:41;;;;;;;24.85;16.45;;;;;;;19.51;71.41;101626.22;5007577;28;20342;-80
2022/10/10 01:01:08;;;;;;;23.73;16.25;;;;;;;19.66;72.13;101667.63;5007474;28;20129;-81
2022/10/10 01:03:37;;;;;;;26.50;15.63;;;;;;;19.43;71.87;101627.91;5005714;28;20089;-81
2022/10/10 01:06:05;;;;;;;28.15;15.75;;;;;;;19.62;71.87;101660.88;5007215;28;20297;-81
2022/10/10 01:08:32;;;;;;;22.50;15.05;;;;;;;18.93;72.27;101567.03;5023001;28;20128;-80
2022/10/10 01:11:20;;;;;;;24.95;14.43;;;;;;;19.59;71.96;101655.84;5023940;28;20053;-79
2022/10/10 01:14:02;;;;;;;21.33;14.48;;;;;;;19.64;71.35;101658.88;5023779;28;20145;-81
2022/10/10 01:16:47;;;;;;;22.08;14.02;;;;;;;19.43;72.11;101651.28;5023185;28;20304;-80
2022/10/10 01:19:41;;;;;;;18.85;13.48;;;;;;;19.45;72.91;101654.66;5023059;28;20046;-81
2022/10/10 01:22:22;;;;;;;17.17;12.23;;;;;;;19.45;73.16;101664.59;5022940;28;20487;-81
2022/10/10 01:25:00;;;;;;;26.38;12.93;;;;;;;19.29;72.39;101643.91;5021824;28;20395;-80
2022/10/10 01:27:37;;;;;;;18.92;13.45;;;;;;;19.21;72.69;101625.91;5005627;28;20046;-81
2022/10/10 01:30:09;;;;;;;16.63;11.65;;;;;;;19.37;72.38;101660.91;5005533;28;20515;-81
2022/10/10 01:33:12;;;;;;;17.80;12.80;;;;;;;19.39;71.97;101658.88;5006153;28;20054;-81
2022/10/10 01:35:47;;;;;;;16.73;12.00;;;;;;;19.30;71.69;101662.59;5022223;28;20049;-81
2022/10/10 01:38:49;;;;;;;19.48;11.77;;;;;;;19.26;71.64;101655.00;5005826;28;20234;-81
2022/10/10 01:41:18;;;;;;;;;;;;;;;19.26;71.94;101661.22;4969180;28;20077;-80
2022/10/10 01:43:45;;;;;;;19.85;11.32;;;;;;;19.16;71.91;101647.09;4998637;28;19928;-81
2022/10/10 01:46:17;;;;;;;25.00;12.40;;;;;;;19.22;71.60;101654.47;5022290;28;20046;-80
2022/10/10 01:48:49;;;;;;;22.92;11.98;;;;;;;19.09;71.71;101651.47;5005927;28;20137;-80
2022/10/10 01:51:22;;;;;;;24.15;11.82;;;;;;;19.12;72.25;101654.66;5006212;28;20060;-81
2022/10/10 01:54:04;;;;;;;18.58;11.70;;;;;;;18.79;71.62;101586.53;5005890;28;20089;-82
2022/10/10 01:56:37;;;;;;;;;;;;;;;19.08;71.67;101649.75;5007926;28;20046;-81
2022/10/10 01:59:51;;;;;;;18.92;12.32;;;;;;;18.88;72.31;101625.84;5006381;28;19925;-82
2022/10/10 02:02:27;;;;;;;20.88;13.05;;;;;;;18.63;72.14;101583.78;4984382;28;20141;-81
2022/10/10 02:05:03;;;;;;;15.55;12.10;;;;;;;19.02;71.98;101643.22;4968644;28;20472;-81
2022/10/10 02:07:36;;;;;;;22.83;12.02;;;;;;;19.09;71.68;101640.69;4992100;28;20050;-81
2022/10/10 02:10:06;;;;;;;18.55;11.90;;;;;;;19.08;71.23;101644.38;5007358;28;20053;-81
2022/10/10 02:12:34;;;;;;;20.20;11.70;;;;;;;18.95;71.17;101621.50;5005765;28;20073;-80
2022/10/10 02:15:17;;;;;;;20.00;12.40;;;;;;;19.02;71.17;101632.44;5022188;28;20146;-81
2022/10/10 02:17:47;;;;;;;19.92;12.57;;;;;;;18.69;71.65;101578.59;5004550;28;20574;-80
2022/10/10 02:20:17;;;;;;;26.60;12.93;;;;;;;19.00;71.18;101635.31;5004972;28;20121;-82
2022/10/10 02:22:46;;;;;;;;;;;;;;;19.03;70.59;101633.28;5009473;28;20050;-82
2022/10/10 02:25:15;;;;;;;19.42;12.40;;;;;;;18.94;70.58;101627.91;5024527;28;20343;-82
2022/10/10 02:28:02;;;;;;;21.73;12.57;;;;;;;18.98;70.61;101629.25;5006122;28;20384;-82
2022/10/10 02:30:33;;;;;;;16.30;11.43;;;;;;;18.32;70.20;101509.09;5005626;28;20053;-82
2022/10/10 02:33:04;;;;;;;18.17;12.45;;;;;;;18.80;70.04;101601.66;5005179;28;20049;-82
2022/10/10 02:35:36;;;;;;;15.82;11.52;;;;;;;18.62;70.87;101585.63;5021551;28;20330;-81
2022/10/10 02:38:06;;;;;;;17.27;11.73;;;;;;;18.33;70.21;101541.19;5004893;28;20539;-82
2022/10/10 02:40:34;;;;;;;20.30;12.13;;;;;;;18.12;70.64;101509.38;5004426;28;20054;-82
2022/10/10 02:43:04;;;;;;;17.55;12.43;;;;;;;18.66;70.92;101604.94;5005222;28;20137;-82
2022/10/10 02:45:32;;;;;;;20.13;12.57;;;;;;;18.40;70.39;101567.41;5005196;28;20573;-81
2022/10/10 02:48:02;;;;;;;20.05;12.52;;;;;;;18.69;70.16;101610.84;5005157;28;20123;-79
2022/10/10 02:50:29;;;;;;;19.25;12.65;;;;;;;18.63;70.49;101602.59;5005276;28;20054;-80
2022/10/10 02:52:56;;;;;;;20.20;12.80;;;;;;;18.77;70.47;101634.28;5005680;28;20073;-81
2022/10/10 02:55:23;;;;;;;18.42;12.13;;;;;;;18.83;70.43;101630.91;5005255;28;20264;-80
2022/10/10 02:57:50;;;;;;;17.90;12.75;;;;;;;18.79;70.83;101634.94;5004618;28;20046;-81
2022/10/10 03:00:17;;;;;;;21.70;12.73;;;;;;;18.06;70.43;101518.13;5004893;28;20180;-80
2022/10/10 03:02:45;;;;;;;18.23;12.45;;;;;;;18.73;72.24;101624.81;5005203;28;20160;-81
2022/10/10 03:05:12;;;;;;;21.25;13.55;;;;;;;18.88;71.59;101638.47;5021002;28;20045;-79
2022/10/10 03:07:38;;;;;;;21.83;12.80;;;;;;;18.77;71.52;101628.88;5021050;28;20386;-81
2022/10/10 03:10:06;;;;;;;18.30;12.25;;;;;;;18.77;71.11;101639.66;5021282;28;20449;-82
2022/10/10 03:12:34;;;;;;;24.00;12.35;;;;;;;18.60;71.20;101617.22;5004591;28;20048;-81
2022/10/10 03:15:00;;;;;;;23.42;12.95;;;;;;;18.79;70.89;101645.72;5004612;28;20045;-81
2022/10/10 03:17:27;;;;;;;18.58;12.55;;;;;;;18.79;70.90;101643.03;5021455;28;20545;-82
2022/10/10 03:19:54;;;;;;;24.50;13.93;;;;;;;18.60;70.91;101625.28;5004455;28;20110;-80
2022/10/10 03:22:20;;;;;;;20.05;13.40;;;;;;;18.48;70.58;101611.31;5004661;28;20050;-80
2022/10/10 03:24:47;;;;;;;20.30;12.95;;;;;;;18.63;70.75;101648.31;5004765;28;20133;-81
2022/10/10 03:27:14;;;;;;;23.65;13.25;;;;;;;18.70;70.49;101643.97;5004480;28;20054;-80
2022/10/10 03:29:40;;;;;;;17.75;13.05;;;;;;;18.68;70.73;101651.34;5020536;28;20042;-80
2022/10/10 03:32:07;;;;;;;21.85;12.75;;;;;;;18.67;70.59;101645.13;5004436;28;20042;-80
2022/10/10 03:34:36;;;;;;;19.23;12.75;;;;;;;18.54;71.13;101613.34;5004843;28;20075;-81
2022/10/10 03:37:03;;;;;;;18.08;12.43;;;;;;;18.76;71.07;101637.94;5004313;28;20088;-81
2022/10/10 03:39:29;;;;;;;21.02;13.02;;;;;;;18.76;70.68;101637.94;5004434;28;20060;-81
2022/10/10 03:41:56;;;;;;;26.33;13.90;;;;;;;18.46;70.92;101594.47;5004479;28;20046;-81
2022/10/10 03:44:23;;;;;;;30.45;14.32;;;;;;;18.69;70.46;101636.88;5020675;28;20164;-80
2022/10/10 03:46:50;;;;;;;20.67;13.02;;;;;;;18.53;70.61;101608.97;5020362;28;20515;-80
2022/10/10 03:49:16;;;;;;;17.27;13.20;;;;;;;17.93;70.83;101515.88;5004132;28;20048;-80
2022/10/10 03:51:43;;;;;;;19.42;13.50;;;;;;;18.64;70.94;101639.22;5003606;28;20137;-82
2022/10/10 03:54:09;;;;;;;23.00;13.45;;;;;;;18.57;70.99;101623.78;5006435;28;20046;-80
2022/10/10 03:56:36;;;;;;;22.42;13.85;;;;;;;18.59;70.91;101631.66;5004644;28;20053;-81
2022/10/10 03:59:05;;;;;;;25.45;13.18;;;;;;;18.56;70.70;101623.91;5004517;28;20050;-82
2022/10/10 04:01:32;;;;;;;18.40;13.52;;;;;;;18.38;70.98;101602.53;5003612;28;20456;-81
2022/10/10 04:03:59;;;;;;;22.70;14.40;;;;;;;18.51;71.16;101618.19;5003989;28;20415;-81
2022/10/10 04:06:27;;;;;;;19.80;14.40;;;;;;;18.42;70.76;101593.13;5020198;28;20078;-81
2022/10/10 04:08:53;;;;;;;20.45;13.43;;;;;;;18.55;70.86;101614.19;5003900;28;20054;-80
2022/10/10 04:11:20;;;;;;;23.77;13.50;;;;;;;18.72;70.41;101620.44;5003804;28;20096;-80
2022/10/10 04:13:47;;;;;;;21.35;13.70;;;;;;;18.68;70.75;101629.84;5003955;28;20100;-81
2022/10/10 04:16:13;;;;;;;20.27;15.07;;;;;;;17.86;70.79;101511.31;5003867;28;20112;-81
2022/10/10 04:18:40;;;;;;;21.70;13.85;;;;;;;18.46;71.07;101604.41;5020268;28;20284;-81
2022/10/10 04:21:11;;;;;;;24.90;13.73;;;;;;;18.61;70.77;101620.75;5003840;28;20093;-81
2022/10/10 04:23:39;;;;;;;25.45;13.77;;;;;;;18.49;71.12;101596.84;5004676;28;20067;-80
2022/10/10 04:26:06;;;;;;;26.58;14.57;;;;;;;18.50;71.07;101598.53;5004669;28;20052;-81
2022/10/10 04:28:33;;;;;;;22.02;14.30;;;;;;;17.52;71.21;101442.34;5020367;28;20531;-82
2022/10/10 04:31:00;;;;;;;19.95;14.52;;;;;;;18.69;71.05;101627.00;5003791;28;20057;-81
2022/10/10 04:33:26;;;;;;;24.95;15.20;;;;;;;18.71;70.90;101624.13;5004060;28;20097;-79
2022/10/10 04:35:53;;;;;;;24.90;14.60;;;;;;;18.61;71.07;101612.69;5021039;28;20319;-81
2022/10/10 04:38:21;;;;;;;22.65;14.10;;;;;;;18.32;71.30;101568.22;5007735;28;20100;-80
2022/10/10 04:40:49;;;;;;;25.15;15.40;;;;;;;18.55;70.96;101598.88;5005540;28;20108;-81
2022/10/10 04:43:17;;;;;;;24.65;14.60;;;;;;;18.35;71.37;101576.00;5020417;28;20120;-80
2022/10/10 04:45:44;;;;;;;26.35;16.92;;;;;;;18.48;71.23;101578.19;5004428;28;20052;-81
2022/10/10 04:48:11;;;;;;;26.17;16.63;;;;;;;18.65;70.81;101605.97;5003670;28;20117;-80
2022/10/10 04:50:38;;;;;;;24.48;16.23;;;;;;;18.70;71.10;101620.59;5005333;28;20099;-81
2022/10/10 04:53:05;;;;;;;26.45;17.40;;;;;;;18.74;71.38;101624.66;5003818;28;20677;-80
2022/10/10 04:55:31;;;;;;;33.25;15.85;;;;;;;18.66;71.36;101603.09;5005357;28;20077;-81
2022/10/10 04:57:58;;;;;;;24.70;16.40;;;;;;;17.83;71.21;101469.50;5003548;28;20093;-81
2022/10/10 05:00:25;;;;;;;28.80;17.88;;;;;;;18.50;71.33;101595.84;5003910;28;20049;-82
2022/10/10 05:02:52;;;;;;;27.13;17.27;;;;;;;18.50;71.51;101595.84;5003905;28;20530;-80
2022/10/10 05:05:19;;;;;;;30.15;16.52;;;;;;;18.62;71.78;101620.59;5007228;28;20079;-81
2022/10/10 05:07:46;;;;;;;30.42;14.68;;;;;;;18.51;72.45;101613.66;5023634;28;20100;-79
2022/10/10 05:10:18;;;;;;;24.08;16.35;;;;;;;18.36;72.20;101583.03;5022892;28;20152;-81
2022/10/10 05:12:45;;;;;;;19.95;14.82;;;;;;;18.25;71.77;101568.03;5006810;28;20136;-79
2022/10/10 05:15:11;;;;;;;24.92;16.17;;;;;;;18.71;71.83;101635.72;5006977;28;20077;-80
2022/10/10 05:17:38;;;;;;;21.08;15.07;;;;;;;18.74;71.74;101634.56;5019223;28;20111;-80
2022/10/10 05:20:05;;;;;;;26.75;17.08;;;;;;;18.41;71.97;101588.75;5026735;28;20320;-80
2022/10/10 05:22:32;;;;;;;26.98;15.68;;;;;;;18.69;72.57;101632.38;5025876;28;20045;-80
2022/10/10 05:24:59;;;;;;;23.90;15.55;;;;;;;18.38;72.56;101581.03;5026228;28;20060;-80
2022/10/10 05:27:26;;;;;;;24.63;16.58;;;;;;;18.10;72.67;101532.88;5026348;28;20049;-81
2022/10/10 05:29:54;;;;;;;25.00;15.52;;;;;;;18.69;72.85;101631.50;5025995;28;20061;-81
2022/10/10 05:32:22;;;;;;;27.88;16.17;;;;;;;18.54;72.91;101607.97;5023471;28;20042;-80
2022/10/10 05:34:48;;;;;;;24.08;16.27;;;;;;;18.76;72.53;101641.50;5007375;28;20145;-81
2022/10/10 05:37:15;;;;;;;28.00;16.08;;;;;;;18.64;72.19;101609.66;5006664;28;20131;-81
2022/10/10 05:39:42;;;;;;;33.03;16.65;;;;;;;18.80;72.34;101644.69;5008207;28;20052;-81
2022/10/10 05:42:09;;;;;;;25.83;16.90;;;;;;;18.81;72.25;101645.53;5021802;28;20056;-79
2022/10/10 05:44:35;;;;;;;33.88;17.33;;;;;;;18.86;72.37;101648.56;5026664;28;20050;-81
2022/10/10 05:47:03;;;;;;;24.88;15.63;;;;;;;18.85;72.40;101642.34;5026403;28;20053;-81
2022/10/10 05:49:29;;;;;;;27.27;15.55;;;;;;;18.89;72.66;101659.84;5031019;28;20484;-81
2022/10/10 05:51:56;;;;;;;25.35;14.50;;;;;;;18.88;72.41;101657.31;5005922;28;20551;-80
2022/10/10 05:54:23;;;;;;;28.85;16.30;;;;;;;18.64;72.49;101620.41;5006055;28;20399;-81
2022/10/10 05:56:49;;;;;;;23.13;15.00;;;;;;;18.78;72.56;101644.84;5006314;28;20050;-81
2022/10/10 05:59:16;;;;;;;26.02;16.35;;;;;;;18.71;72.84;101642.94;5006471;28;20103;-81
2022/10/10 06:01:43;;;;;;;23.00;14.73;;;;;;;18.63;73.09;101621.44;5006263;28;20058;-83
2022/10/10 06:04:09;;;;;;;27.85;15.60;;;;;;;18.69;73.22;101637.75;5002479;28;20142;-81
2022/10/10 06:06:36;;;;;;;26.50;15.98;;;;;;;18.78;72.94;101650.22;5024416;28;20041;-80
2022/10/10 06:09:03;;;;;;;24.08;15.13;;;;;;;18.86;72.53;101649.41;5025920;28;20507;-81
2022/10/10 06:11:30;;;;;;;21.10;17.30;;;;;;;18.98;72.78;101669.63;5041793;28;20140;-81
2022/10/10 06:13:56;;;;;;;27.00;16.55;;;;;;;18.94;72.75;101665.56;5026089;28;20053;-80
2022/10/10 06:16:25;;;;;;;22.85;15.55;;;;;;;18.98;73.09;101669.63;5024293;28;20141;-81
2022/10/10 06:18:52;;;;;;;24.52;15.95;;;;;;;18.94;72.78;101665.56;5005847;28;20164;-81
2022/10/10 06:21:18;;;;;;;29.55;17.02;;;;;;;19.07;72.53;101677.69;5006987;28;20064;-81
2022/10/10 06:23:45;;;;;;;22.13;15.55;;;;;;;18.65;72.52;101609.50;5005459;28;20088;-81
2022/10/10 06:26:12;;;;;;;22.85;15.18;;;;;;;19.11;72.31;101679.06;5021821;28;20086;-80
2022/10/10 06:28:38;;;;;;;31.50;15.57;;;;;;;18.98;72.15;101658.84;5004885;28;20484;-82
2022/10/10 06:31:07;;;;;;;24.83;16.77;;;;;;;19.05;71.81;101685.09;5006115;28;20063;-82
2022/10/10 06:33:36;;;;;;;27.35;15.52;;;;;;;18.99;72.40;101675.84;5004613;28;20046;-81
2022/10/10 06:36:07;;;;;;;19.77;14.98;;;;;;;18.97;72.96;101678.69;5005524;28;20409;-80
2022/10/10 06:38:38;;;;;;;26.20;16.42;;;;;;;19.07;72.98;101691.16;5004567;28;20465;-82
2022/10/10 06:41:06;;;;;;;22.20;15.35;;;;;;;19.07;72.62;101693.84;5021806;28;20050;-82
2022/10/10 06:43:33;;;;;;;23.70;15.68;;;;;;;19.02;72.26;101697.03;5005686;28;20046;-80
2022/10/10 06:46:00;;;;;;;28.92;15.35;;;;;;;18.98;72.13;101693.84;5005159;28;20096;-81
2022/10/10 06:48:33;;;;;;;25.45;15.70;;;;;;;18.96;72.58;101693.16;5005233;28;20077;-81
2022/10/10 06:51:03;;;;;;;27.23;16.45;;;;;;;18.61;72.50;101631.50;5022122;28;20143;-80
2022/10/10 06:53:31;;;;;;;24.83;15.70;;;;;;;18.92;72.82;101681.03;5016852;28;20131;-82
2022/10/10 06:55:58;;;;;;;29.73;16.65;;;;;;;19.01;72.54;101692.66;5042201;28;20088;-80
2022/10/10 06:58:26;;;;;;;24.88;15.38;;;;;;;19.07;72.26;101693.84;5026049;28;20054;-80
2022/10/10 07:00:55;;;;;;;26.35;15.93;;;;;;;19.10;72.25;101693.50;5041663;28;20148;-82
2022/10/10 07:03:22;;;;;;;25.25;14.55;;;;;;;19.13;71.96;101693.19;5030514;28;20058;-81
2022/10/10 07:05:51;;;;;;;19.92;15.40;;;;;;;19.09;72.33;101694.53;5004699;28;20057;-81
2022/10/10 07:08:18;;;;;;;29.30;16.63;;;;;;;19.05;72.30;101698.53;5014524;28;20160;-80
2022/10/10 07:10:46;;;;;;;23.58;15.73;;;;;;;18.96;72.07;101677.00;5025078;28;20084;-80
2022/10/10 07:13:13;;;;;;;23.88;15.77;;;;;;;19.08;72.51;101685.63;5005396;28;20070;-82
2022/10/10 07:15:40;;;;;;;28.45;15.77;;;;;;;19.17;72.52;101697.22;5021155;28;20137;-81
2022/10/10 07:18:06;;;;;;;33.53;15.80;;;;;;;19.19;71.96;101690.66;5004437;28;20543;-81
2022/10/10 07:20:34;;;;;;;21.40;15.13;;;;;;;18.97;71.20;101646.41;5004619;28;20053;-81
2022/10/10 07:23:01;;;;;;;20.48;15.07;;;;;;;19.24;71.98;101705.47;5004797;28;20056;-82
2022/10/10 07:25:28;;;;;;;21.10;16.05;;;;;;;19.24;71.68;101709.00;5021080;28;20045;-81
2022/10/10 07:27:55;;;;;;;30.58;15.10;;;;;;;19.25;71.90;101697.25;5004091;28;20359;-80
2022/10/10 07:30:25;;;;;;;31.13;14.55;;;;;;;19.35;71.49;101707.84;5020123;28;20141;-80
2022/10/10 07:32:54;;;;;;;27.13;12.82;;;;;;;19.28;71.40;101707.66;5020918;28;20057;-80
2022/10/10 07:35:22;;;;;;;29.30;14.48;;;;;;;19.34;71.47;101712.38;5004647;28;20481;-82
2022/10/10 07:37:53;;;;;;;21.65;14.30;;;;;;;18.77;71.24;101624.34;5004779;28;20052;-82
2022/10/10 07:40:19;;;;;;;26.02;13.25;;;;;;;19.43;71.39;101711.38;5004472;28;20063;-81
2022/10/10 07:42:46;;;;;;;22.80;13.30;;;;;;;19.23;70.97;101668.81;5020813;28;20060;-81
2022/10/10 07:45:12;;;;;;;28.48;12.70;;;;;;;19.40;70.76;101690.19;5020404;28;20054;-81
2022/10/10 07:47:39;;;;;;;17.27;11.40;;;;;;;19.71;69.92;101703.00;5004616;28;20132;-82
2022/10/10 07:50:07;;;;;;;25.52;11.55;;;;;;;19.53;69.85;101686.13;5004372;28;20053;-81
2022/10/10 07:52:34;;;;;;;17.67;10.88;;;;;;;19.66;69.57;101705.34;5006367;28;20415;-80
2022/10/10 07:55:01;;;;;;;18.83;11.48;;;;;;;19.48;69.52;101669.66;5040318;28;20107;-80
2022/10/10 07:57:28;;;;;;;17.60;11.48;;;;;;;18.45;69.56;101490.66;5040419;28;20057;-80
2022/10/10 07:59:55;;;;;;;17.77;10.15;;;;;;;19.85;68.88;101710.41;5040528;28;20049;-80
2022/10/10 08:02:21;;;;;;;20.73;11.52;;;;;;;19.94;68.95;101710.38;5037891;28;20049;-81
2022/10/10 08:04:48;;;;;;;16.92;10.88;;;;;;;19.72;68.58;101677.72;5004107;28;20407;-80
2022/10/10 08:07:15;;;;;;;20.70;11.50;;;;;;;19.95;68.85;101714.75;5002893;28;20048;-81
2022/10/10 08:09:42;;;;;;;12.32;9.85;;;;;;;19.95;68.76;101703.97;5019368;28;20038;-81
2022/10/10 08:12:08;;;;;;;14.02;9.63;;;;;;;19.96;68.16;101692.19;5002207;28;20066;-82
2022/10/10 08:14:35;;;;;;;19.65;10.80;;;;;;;20.14;68.24;101708.13;4998384;28;20072;-80
2022/10/10 08:17:02;;;;;;;13.40;9.88;;;;;;;20.20;67.58;101708.28;5018911;28;20061;-80
2022/10/10 08:19:28;;;;;;;17.65;10.40;;;;;;;20.17;67.50;101705.09;5017145;28;20050;-79
2022/10/10 08:21:55;;;;;;;19.33;9.93;;;;;;;19.96;67.47;101667.94;5019894;28;20053;-80
2022/10/10 08:24:22;;;;;;;15.85;10.20;;;;;;;19.92;67.14;101661.19;4987585;28;20442;-81
2022/10/10 08:26:49;;;;;;;18.35;10.90;;;;;;;20.18;67.11;101699.53;5019853;28;20123;-80
2022/10/10 08:29:17;;;;;;;15.35;10.13;;;;;;;20.41;66.83;101720.34;5001070;28;20451;-81
2022/10/10 08:31:43;;;;;;;17.95;10.90;;;;;;;20.14;66.08;101698.19;5020153;28;20058;-82
2022/10/10 08:34:10;;;;;;;18.00;9.70;;;;;;;20.35;66.19;101732.69;5019588;28;20076;-80
2022/10/10 08:36:37;;;;;;;15.57;9.80;;;;;;;20.34;66.02;101722.06;5019752;28;20061;-80
2022/10/10 08:39:04;;;;;;;16.08;9.73;;;;;;;20.46;65.58;101734.16;5005036;28;20041;-79
2022/10/10 08:41:51;;;;;;;17.30;9.55;;;;;;;19.24;65.61;101527.81;5022834;28;20484;-80
2022/10/10 08:44:45;;;;;;;25.30;10.55;;;;;;;20.51;65.81;101739.88;5020407;28;20100;-80
2022/10/10 08:47:17;;;;;;;19.88;10.63;;;;;;;20.60;65.73;101741.53;5007554;28;20132;-80
2022/10/10 08:49:49;;;;;;;19.02;10.52;;;;;;;20.64;65.14;101736.66;5007240;28;20396;-81
2022/10/10 08:52:18;;;;;;;19.65;10.48;;;;;;;20.60;65.46;101732.63;5008527;28;20059;-81
2022/10/10 08:54:47;;;;;;;14.77;10.25;;;;;;;20.67;65.13;101733.59;5004084;28;20054;-81
2022/10/10 08:57:28;;;;;;;17.23;10.73;;;;;;;20.78;64.58;101735.91;4987013;28;20090;-80
2022/10/10 09:00:00;;;;;;;19.17;10.75;;;;;;;20.27;64.79;101658.06;4988363;28;20077;-79
2022/10/10 09:02:47;;;;;;;15.57;9.35;;;;;;;20.81;64.44;101734.72;5005598;28;20053;-80
2022/10/10 09:05:40;;;;;;;22.45;8.43;;;;;;;20.63;63.51;101684.56;5029025;28;20081;-80
2022/10/10 09:08:38;;;;;;;17.60;10.45;;;;;;;20.89;63.82;101740.06;5018405;28;20057;-81
2022/10/10 09:11:13;;;;;;;18.02;8.95;;;;;;;21.12;63.26;101734.72;5015376;28;20050;-83
2022/10/10 09:14:19;;;;;;;15.55;9.40;;;;;;;21.25;62.76;101721.47;5017565;28;20112;-82
2022/10/10 09:16:49;;;;;;;25.02;8.90;;;;;;;20.03;62.97;101499.13;5015827;28;20146;-81
2022/10/10 09:19:46;;;;;;;14.15;8.82;;;;;;;21.54;62.37;101718.06;5015483;28;20056;-82
2022/10/10 09:22:19;;;;;;;13.50;8.68;;;;;;;21.60;61.31;101694.03;5007916;28;20050;-82
2022/10/10 09:24:52;;;;;;;17.67;9.43;;;;;;;21.77;60.76;101725.28;5008972;28;20112;-81
2022/10/10 09:27:31;;;;;;;16.17;9.70;;;;;;;21.16;60.58;101651.50;5007275;28;20534;-80
2022/10/10 09:30:29;;;;;;;20.67;9.07;;;;;;;21.55;61.14;101722.47;5018276;28;20362;-80
2022/10/10 09:33:00;;;;;;;16.35;9.02;;;;;;;21.40;61.32;101708.03;5016008;28;20089;-81
2022/10/10 09:35:42;;;;;;;16.05;8.65;;;;;;;20.80;61.38;101609.75;5007881;28;20349;-80
2022/10/10 09:38:26;;;;;;;15.70;9.18;;;;;;;21.43;61.23;101725.75;5007630;28;20048;-81
2022/10/10 09:41:15;;;;;;;14.52;8.07;;;;;;;21.27;61.35;101673.50;5023659;28;20140;-81
2022/10/10 09:43:43;;;;;;;19.25;9.35;;;;;;;21.61;60.75;101720.88;5007151;28;20050;-81
2022/10/10 09:46:09;;;;;;;13.75;8.98;;;;;;;21.78;60.54;101705.34;5007251;28;20567;-81
2022/10/10 09:48:39;;;;;;;18.85;8.82;;;;;;;21.00;60.27;101537.22;5007427;28;20124;-81
2022/10/10 09:51:13;;;;;;;11.43;8.20;;;;;;;22.30;58.88;101696.38;5008813;28;20104;-79
2022/10/10 09:53:41;;;;;;;17.88;9.05;;;;;;;22.32;58.81;101704.31;5017878;28;20056;-80
2022/10/10 09:56:16;;;;;;;18.05;9.30;;;;;;;21.65;58.64;101610.56;5026586;28;20057;-81
2022/10/10 09:58:49;;;;;;;14.77;8.32;;;;;;;20.73;59.73;101513.50;5027945;28;20200;-79
2022/10/10 10:01:18;;;;;;;12.20;8.60;;;;;;;21.95;60.01;101724.97;5025887;28;20057;-81
2022/10/10 10:04:18;;;;;;;14.57;8.93;;;;;;;21.85;60.28;101714.41;5011899;28;20096;-81
2022/10/10 10:07:17;;;;;;;16.50;8.63;;;;;;;21.93;59.89;101713.50;4987227;28;20496;-79
2022/10/10 10:09:51;;;;;;;13.32;8.65;;;;;;;21.97;59.19;101723.75;4987921;28;20061;-80
2022/10/10 10:12:23;;;;;;;12.43;8.65;;;;;;;20.86;59.65;101560.44;5004952;28;20564;-82
2022/10/10 10:14:57;;;;;;;13.98;9.25;;;;;;;21.50;59.23;101654.59;4987311;28;20050;-82
2022/10/10 10:17:24;;;;;;;13.32;9.63;;;;;;;21.97;59.18;101725.63;5016832;28;20442;-81
2022/10/10 10:19:51;;;;;;;15.57;8.23;;;;;;;21.57;59.59;101695.22;5025066;28;20056;-82
2022/10/10 10:22:37;;;;;;;19.48;9.68;;;;;;;21.86;59.39;101726.88;5025285;28;20498;-82
2022/10/10 10:25:35;;;;;;;12.77;9.02;;;;;;;21.84;59.16;101734.34;5026137;28;20060;-82
2022/10/10 10:28:12;;;;;;;18.52;9.95;;;;;;;21.57;59.25;101700.63;5024353;28;20369;-83
2022/10/10 10:30:39;;;;;;;15.45;8.65;;;;;;;21.46;59.60;101693.81;5024409;28;20077;-82
2022/10/10 10:33:24;;;;;;;21.85;9.13;;;;;;;21.75;59.98;101735.47;5017088;28;20496;-80
2022/10/10 10:36:03;;;;;;;14.02;9.02;;;;;;;21.72;59.77;101735.81;5005130;28;20054;-81
2022/10/10 10:38:54;;;;;;;15.25;9.63;;;;;;;21.74;59.57;101733.75;5005816;28;20054;-81
2022/10/10 10:41:37;;;;;;;12.88;9.75;;;;;;;21.53;59.91;101710.13;5005791;28;20056;-81
2022/10/10 10:44:26;;;;;;;13.05;9.18;;;;;;;21.77;59.78;101727.97;5007257;28;20392;-82
2022/10/10 10:47:08;;;;;;;13.07;9.32;;;;;;;21.88;60.14;101721.31;5005651;28;20132;-81
2022/10/10 10:49:53;;;;;;;15.13;9.93;;;;;;;21.97;59.07;101731.84;5005590;28;20057;-81
2022/10/10 10:52:22;;;;;;;20.77;9.70;;;;;;;21.77;59.83;101725.28;5006960;28;20061;-81
2022/10/10 10:55:21;;;;;;;16.10;9.45;;;;;;;21.85;59.70;101721.69;5025802;28;20069;-80
2022/10/10 10:57:51;;;;;;;17.23;9.77;;;;;;;21.84;60.26;101720.81;5008687;28;20159;-81
2022/10/10 11:00:51;;;;;;;13.80;10.27;;;;;;;21.87;59.96;101715.06;5018839;28;20054;-81
2022/10/10 11:03:46;;;;;;;15.85;10.63;;;;;;;21.53;59.61;101643.44;5000545;28;20154;-82
2022/10/10 11:07:14;;;;;;;14.45;9.75;;;;;;;21.92;60.09;101709.13;4999807;28;20351;-81
2022/10/10 11:10:01;;;;;;;13.13;8.90;;;;;;;21.96;60.17;101707.69;5001775;28;20121;-81
2022/10/10 11:12:50;;;;;;;14.30;9.85;;;;;;;22.06;60.06;101710.13;5004851;28;20442;-81
2022/10/10 11:15:29;;;;;;;21.13;10.20;;;;;;;22.06;59.57;101697.44;4995572;28;20313;-83
2022/10/10 11:18:24;;;;;;;15.98;10.43;;;;;;;21.57;59.38;101618.75;5003155;28;20435;-82
2022/10/10 11:21:18;;;;;;;16.13;9.77;;;;;;;22.01;59.02;101707.16;5007346;28;20140;-81
2022/10/10 11:24:03;;;;;;;15.48;8.80;;;;;;;21.76;59.09;101666.84;5011574;28;20046;-80
2022/10/10 11:27:06;;;;;;;16.33;9.55;;;;;;;22.06;59.51;101707.44;5006216;28;20515;-81
2022/10/10 11:29:59;;;;;;;14.82;9.68;;;;;;;21.85;59.06;101649.53;4989165;28;20042;-79
2022/10/10 11:32:37;;;;;;;14.88;10.50;;;;;;;20.81;58.43;101467.56;5009887;28;20060;-81
2022/10/10 11:35:16;;;;;;;18.58;10.48;;;;;;;21.99;59.13;101693.81;5007577;28;20065;-80